sensor_id;sensor_type;location;lat;lon;timestamp;P1;durP1;ratioP1;P2;durP2;ratioP2
68484;SDS011;55472;50.060;21.960;2023-04-24T00:01:39;12.93;;;5.20;;
68484;SDS011;55472;50.060;21.960;2023-04-24T00:04:05;12.85;;;5.20;;
68484;SDS011;55472;50.060;21.960;2023-04-24T00:06:36;9.07;;;4.57;;
68484;SDS011;55472;50.060;21.960;2023-04-24T00:09:03;12.30;;;4.88;;
68484;SDS011;55472;50.060;21.960;2023-04-24T00:11:30;10.13;;;4.63;;
68484;SDS011;55472;50.060;21.960;2023-04-24T00:13:56;9.30;;;4.63;;
68484;SDS011;55472;50.060;21.960;2023-04-24T00:16:23;10.15;;;4.28;;
68484;SDS011;55472;50.060;21.960;2023-04-24T00:18:49;12.73;;;5.10;;
68484;SDS011;55472;50.060;21.960;2023-04-24T00:21:15;10.07;;;4.53;;
68484;SDS011;55472;50.060;21.960;2023-04-24T00:23:43;9.67;;;4.37;;
68484;SDS011;55472;50.060;21.960;2023-04-24T00:26:10;7.95;;;4.15;;
68484;SDS011;55472;50.060;21.960;2023-04-24T00:28:36;8.45;;;4.18;;
68484;SDS011;55472;50.060;21.960;2023-04-24T00:31:02;11.50;;;4.28;;
68484;SDS011;55472;50.060;21.960;2023-04-24T00:33:28;8.93;;;4.20;;
68484;SDS011;55472;50.060;21.960;2023-04-24T00:35:54;7.30;;;3.63;;
68484;SDS011;55472;50.060;21.960;2023-04-24T00:38:20;11.98;;;4.07;;
68484;SDS011;55472;50.060;21.960;2023-04-24T00:40:47;7.25;;;3.72;;
68484;SDS011;55472;50.060;21.960;2023-04-24T00:43:15;7.60;;;3.88;;
68484;SDS011;55472;50.060;21.960;2023-04-24T00:45:42;8.45;;;3.95;;
68484;SDS011;55472;50.060;21.960;2023-04-24T00:48:08;9.23;;;4.10;;
68484;SDS011;55472;50.060;21.960;2023-04-24T00:50:35;9.35;;;3.65;;
68484;SDS011;55472;50.060;21.960;2023-04-24T00:53:02;9.63;;;3.83;;
68484;SDS011;55472;50.060;21.960;2023-04-24T00:55:28;9.80;;;3.90;;
68484;SDS011;55472;50.060;21.960;2023-04-24T00:57:54;9.13;;;3.97;;
68484;SDS011;55472;50.060;21.960;2023-04-24T01:00:21;9.10;;;3.80;;
68484;SDS011;55472;50.060;21.960;2023-04-24T01:02:47;7.18;;;3.65;;
68484;SDS011;55472;50.060;21.960;2023-04-24T01:05:15;9.73;;;4.45;;
68484;SDS011;55472;50.060;21.960;2023-04-24T01:07:43;8.00;;;3.65;;
68484;SDS011;55472;50.060;21.960;2023-04-24T01:10:13;8.00;;;4.13;;
68484;SDS011;55472;50.060;21.960;2023-04-24T01:12:40;11.07;;;3.77;;
68484;SDS011;55472;50.060;21.960;2023-04-24T01:15:06;7.35;;;3.70;;
68484;SDS011;55472;50.060;21.960;2023-04-24T01:17:34;9.50;;;3.83;;
68484;SDS011;55472;50.060;21.960;2023-04-24T01:20:00;8.32;;;3.97;;
68484;SDS011;55472;50.060;21.960;2023-04-24T01:22:29;6.65;;;3.80;;
68484;SDS011;55472;50.060;21.960;2023-04-24T01:24:55;8.43;;;4.20;;
68484;SDS011;55472;50.060;21.960;2023-04-24T01:27:21;7.57;;;3.85;;
68484;SDS011;55472;50.060;21.960;2023-04-24T01:29:48;7.32;;;3.70;;
68484;SDS011;55472;50.060;21.960;2023-04-24T01:32:16;10.98;;;4.25;;
68484;SDS011;55472;50.060;21.960;2023-04-24T01:34:44;7.47;;;4.00;;
68484;SDS011;55472;50.060;21.960;2023-04-24T01:37:10;7.67;;;3.57;;
68484;SDS011;55472;50.060;21.960;2023-04-24T01:39:37;7.85;;;3.67;;
68484;SDS011;55472;50.060;21.960;2023-04-24T01:42:03;11.82;;;4.40;;
68484;SDS011;55472;50.060;21.960;2023-04-24T01:44:30;7.75;;;3.80;;
68484;SDS011;55472;50.060;21.960;2023-04-24T01:46:57;7.57;;;3.78;;
68484;SDS011;55472;50.060;21.960;2023-04-24T01:49:23;9.40;;;4.33;;
68484;SDS011;55472;50.060;21.960;2023-04-24T01:51:49;8.02;;;4.30;;
68484;SDS011;55472;50.060;21.960;2023-04-24T01:54:15;9.70;;;4.10;;
68484;SDS011;55472;50.060;21.960;2023-04-24T01:56:42;7.25;;;3.80;;
68484;SDS011;55472;50.060;21.960;2023-04-24T01:59:09;8.23;;;4.00;;
68484;SDS011;55472;50.060;21.960;2023-04-24T02:01:37;8.75;;;3.85;;
68484;SDS011;55472;50.060;21.960;2023-04-24T02:04:04;7.47;;;3.97;;
68484;SDS011;55472;50.060;21.960;2023-04-24T02:06:32;7.05;;;3.75;;
68484;SDS011;55472;50.060;21.960;2023-04-24T02:08:58;7.97;;;4.00;;
68484;SDS011;55472;50.060;21.960;2023-04-24T02:11:25;9.97;;;3.97;;
68484;SDS011;55472;50.060;21.960;2023-04-24T02:13:52;8.55;;;3.65;;
68484;SDS011;55472;50.060;21.960;2023-04-24T02:16:18;11.10;;;3.80;;
68484;SDS011;55472;50.060;21.960;2023-04-24T02:18:44;7.88;;;3.90;;
68484;SDS011;55472;50.060;21.960;2023-04-24T02:21:10;8.80;;;3.60;;
68484;SDS011;55472;50.060;21.960;2023-04-24T02:23:37;6.23;;;3.40;;
68484;SDS011;55472;50.060;21.960;2023-04-24T02:26:03;6.75;;;3.45;;
68484;SDS011;55472;50.060;21.960;2023-04-24T02:28:29;7.50;;;3.78;;
68484;SDS011;55472;50.060;21.960;2023-04-24T02:30:55;8.32;;;3.85;;
68484;SDS011;55472;50.060;21.960;2023-04-24T02:33:21;8.07;;;3.97;;
68484;SDS011;55472;50.060;21.960;2023-04-24T02:35:47;8.27;;;4.07;;
68484;SDS011;55472;50.060;21.960;2023-04-24T02:38:14;8.00;;;3.97;;
68484;SDS011;55472;50.060;21.960;2023-04-24T02:40:40;6.45;;;3.42;;
68484;SDS011;55472;50.060;21.960;2023-04-24T02:43:06;7.75;;;3.75;;
68484;SDS011;55472;50.060;21.960;2023-04-24T02:45:32;6.93;;;3.80;;
68484;SDS011;55472;50.060;21.960;2023-04-24T02:48:00;7.63;;;3.83;;
68484;SDS011;55472;50.060;21.960;2023-04-24T02:50:26;8.18;;;3.50;;
68484;SDS011;55472;50.060;21.960;2023-04-24T02:52:52;8.10;;;3.95;;
68484;SDS011;55472;50.060;21.960;2023-04-24T02:55:18;7.85;;;4.00;;
68484;SDS011;55472;50.060;21.960;2023-04-24T02:57:44;8.55;;;3.83;;
68484;SDS011;55472;50.060;21.960;2023-04-24T03:00:11;11.40;;;3.93;;
68484;SDS011;55472;50.060;21.960;2023-04-24T03:02:38;9.15;;;4.00;;
68484;SDS011;55472;50.060;21.960;2023-04-24T03:05:05;7.00;;;3.83;;
68484;SDS011;55472;50.060;21.960;2023-04-24T03:07:31;9.50;;;4.63;;
68484;SDS011;55472;50.060;21.960;2023-04-24T03:09:57;8.37;;;4.37;;
68484;SDS011;55472;50.060;21.960;2023-04-24T03:12:23;11.23;;;5.20;;
68484;SDS011;55472;50.060;21.960;2023-04-24T03:14:50;10.93;;;5.50;;
68484;SDS011;55472;50.060;21.960;2023-04-24T03:17:16;11.38;;;4.90;;
68484;SDS011;55472;50.060;21.960;2023-04-24T03:19:42;11.45;;;4.60;;
68484;SDS011;55472;50.060;21.960;2023-04-24T03:22:08;9.60;;;4.50;;
68484;SDS011;55472;50.060;21.960;2023-04-24T03:24:34;9.67;;;4.63;;
68484;SDS011;55472;50.060;21.960;2023-04-24T03:27:00;9.57;;;4.65;;
68484;SDS011;55472;50.060;21.960;2023-04-24T03:29:26;8.20;;;4.32;;
68484;SDS011;55472;50.060;21.960;2023-04-24T03:31:53;11.45;;;4.70;;
68484;SDS011;55472;50.060;21.960;2023-04-24T03:34:19;8.73;;;4.32;;
68484;SDS011;55472;50.060;21.960;2023-04-24T03:36:45;9.37;;;4.20;;
68484;SDS011;55472;50.060;21.960;2023-04-24T03:39:12;11.63;;;6.25;;
68484;SDS011;55472;50.060;21.960;2023-04-24T03:41:39;22.90;;;10.20;;
68484;SDS011;55472;50.060;21.960;2023-04-24T03:44:05;10.02;;;4.90;;
68484;SDS011;55472;50.060;21.960;2023-04-24T03:46:31;11.15;;;5.18;;
68484;SDS011;55472;50.060;21.960;2023-04-24T03:48:57;11.07;;;4.70;;
68484;SDS011;55472;50.060;21.960;2023-04-24T03:51:23;10.23;;;4.60;;
68484;SDS011;55472;50.060;21.960;2023-04-24T03:53:50;9.25;;;4.80;;
68484;SDS011;55472;50.060;21.960;2023-04-24T03:56:16;7.25;;;4.30;;
68484;SDS011;55472;50.060;21.960;2023-04-24T03:58:42;7.57;;;4.10;;
68484;SDS011;55472;50.060;21.960;2023-04-24T04:01:09;8.67;;;4.07;;
68484;SDS011;55472;50.060;21.960;2023-04-24T04:03:36;8.35;;;3.75;;
68484;SDS011;55472;50.060;21.960;2023-04-24T04:06:03;8.48;;;4.15;;
68484;SDS011;55472;50.060;21.960;2023-04-24T04:08:29;9.35;;;4.35;;
68484;SDS011;55472;50.060;21.960;2023-04-24T04:10:55;8.95;;;4.00;;
68484;SDS011;55472;50.060;21.960;2023-04-24T04:13:21;8.83;;;4.27;;
68484;SDS011;55472;50.060;21.960;2023-04-24T04:15:48;9.13;;;4.43;;
68484;SDS011;55472;50.060;21.960;2023-04-24T04:18:14;9.90;;;4.40;;
68484;SDS011;55472;50.060;21.960;2023-04-24T04:20:41;7.85;;;4.18;;
68484;SDS011;55472;50.060;21.960;2023-04-24T04:23:07;8.38;;;4.00;;
68484;SDS011;55472;50.060;21.960;2023-04-24T04:25:33;8.43;;;4.07;;
68484;SDS011;55472;50.060;21.960;2023-04-24T04:27:59;10.23;;;4.25;;
68484;SDS011;55472;50.060;21.960;2023-04-24T04:30:25;12.27;;;4.13;;
68484;SDS011;55472;50.060;21.960;2023-04-24T04:32:52;11.80;;;4.55;;
68484;SDS011;55472;50.060;21.960;2023-04-24T04:35:18;9.15;;;4.35;;
68484;SDS011;55472;50.060;21.960;2023-04-24T04:37:44;9.60;;;4.73;;
68484;SDS011;55472;50.060;21.960;2023-04-24T04:40:11;11.70;;;4.30;;
68484;SDS011;55472;50.060;21.960;2023-04-24T04:42:37;9.02;;;4.28;;
68484;SDS011;55472;50.060;21.960;2023-04-24T04:45:08;14.57;;;4.55;;
68484;SDS011;55472;50.060;21.960;2023-04-24T04:47:34;11.93;;;4.15;;
68484;SDS011;55472;50.060;21.960;2023-04-24T04:50:01;9.90;;;4.27;;
68484;SDS011;55472;50.060;21.960;2023-04-24T04:52:29;11.93;;;4.45;;
68484;SDS011;55472;50.060;21.960;2023-04-24T04:54:55;9.85;;;4.88;;
68484;SDS011;55472;50.060;21.960;2023-04-24T04:57:21;9.73;;;4.88;;
68484;SDS011;55472;50.060;21.960;2023-04-24T04:59:47;8.60;;;4.20;;
68484;SDS011;55472;50.060;21.960;2023-04-24T05:02:13;9.32;;;4.40;;
68484;SDS011;55472;50.060;21.960;2023-04-24T05:04:40;10.13;;;4.50;;
68484;SDS011;55472;50.060;21.960;2023-04-24T05:07:06;9.75;;;4.28;;
68484;SDS011;55472;50.060;21.960;2023-04-24T05:09:32;9.52;;;4.55;;
68484;SDS011;55472;50.060;21.960;2023-04-24T05:11:58;7.97;;;4.20;;
68484;SDS011;55472;50.060;21.960;2023-04-24T05:14:25;11.48;;;4.90;;
68484;SDS011;55472;50.060;21.960;2023-04-24T05:16:51;12.52;;;4.85;;
68484;SDS011;55472;50.060;21.960;2023-04-24T05:19:18;12.85;;;5.32;;
68484;SDS011;55472;50.060;21.960;2023-04-24T05:21:44;10.40;;;4.72;;
68484;SDS011;55472;50.060;21.960;2023-04-24T05:24:10;10.97;;;4.70;;
68484;SDS011;55472;50.060;21.960;2023-04-24T05:26:36;13.32;;;4.95;;
68484;SDS011;55472;50.060;21.960;2023-04-24T05:29:03;15.50;;;4.97;;
68484;SDS011;55472;50.060;21.960;2023-04-24T05:31:29;10.27;;;4.97;;
68484;SDS011;55472;50.060;21.960;2023-04-24T05:33:56;12.77;;;4.77;;
68484;SDS011;55472;50.060;21.960;2023-04-24T05:36:22;14.18;;;5.00;;
68484;SDS011;55472;50.060;21.960;2023-04-24T05:38:48;12.88;;;5.10;;
68484;SDS011;55472;50.060;21.960;2023-04-24T05:41:14;10.38;;;4.63;;
68484;SDS011;55472;50.060;21.960;2023-04-24T05:43:41;8.38;;;4.50;;
68484;SDS011;55472;50.060;21.960;2023-04-24T05:46:07;10.43;;;4.00;;
68484;SDS011;55472;50.060;21.960;2023-04-24T05:48:33;7.55;;;3.95;;
68484;SDS011;55472;50.060;21.960;2023-04-24T05:50:59;11.40;;;4.13;;
68484;SDS011;55472;50.060;21.960;2023-04-24T05:53:26;7.85;;;4.00;;
68484;SDS011;55472;50.060;21.960;2023-04-24T05:55:52;8.57;;;4.05;;
68484;SDS011;55472;50.060;21.960;2023-04-24T05:58:19;10.03;;;4.20;;
68484;SDS011;55472;50.060;21.960;2023-04-24T06:00:45;9.73;;;4.40;;
68484;SDS011;55472;50.060;21.960;2023-04-24T06:03:12;9.98;;;4.65;;
68484;SDS011;55472;50.060;21.960;2023-04-24T06:05:38;11.95;;;4.93;;
68484;SDS011;55472;50.060;21.960;2023-04-24T06:08:04;9.73;;;4.07;;
68484;SDS011;55472;50.060;21.960;2023-04-24T06:10:31;11.63;;;4.10;;
68484;SDS011;55472;50.060;21.960;2023-04-24T06:12:57;9.57;;;4.30;;
68484;SDS011;55472;50.060;21.960;2023-04-24T06:15:27;11.07;;;3.88;;
68484;SDS011;55472;50.060;21.960;2023-04-24T06:17:55;8.35;;;3.85;;
68484;SDS011;55472;50.060;21.960;2023-04-24T06:20:22;13.90;;;4.30;;
68484;SDS011;55472;50.060;21.960;2023-04-24T06:22:49;7.93;;;3.93;;
68484;SDS011;55472;50.060;21.960;2023-04-24T06:25:15;9.45;;;3.50;;
68484;SDS011;55472;50.060;21.960;2023-04-24T06:27:42;7.20;;;3.53;;
68484;SDS011;55472;50.060;21.960;2023-04-24T06:30:08;6.75;;;3.20;;
68484;SDS011;55472;50.060;21.960;2023-04-24T06:32:35;7.20;;;3.63;;
68484;SDS011;55472;50.060;21.960;2023-04-24T06:35:01;7.40;;;3.57;;
68484;SDS011;55472;50.060;21.960;2023-04-24T06:37:27;6.60;;;3.45;;
68484;SDS011;55472;50.060;21.960;2023-04-24T06:39:53;7.70;;;3.58;;
68484;SDS011;55472;50.060;21.960;2023-04-24T06:42:20;6.63;;;3.40;;
68484;SDS011;55472;50.060;21.960;2023-04-24T06:44:47;8.50;;;3.70;;
68484;SDS011;55472;50.060;21.960;2023-04-24T06:47:13;7.63;;;3.40;;
68484;SDS011;55472;50.060;21.960;2023-04-24T06:49:41;6.03;;;3.15;;
68484;SDS011;55472;50.060;21.960;2023-04-24T06:52:08;9.35;;;3.20;;
68484;SDS011;55472;50.060;21.960;2023-04-24T06:54:34;8.93;;;3.63;;
68484;SDS011;55472;50.060;21.960;2023-04-24T06:57:01;7.88;;;3.25;;
68484;SDS011;55472;50.060;21.960;2023-04-24T06:59:28;9.67;;;3.77;;
68484;SDS011;55472;50.060;21.960;2023-04-24T07:01:55;7.68;;;3.40;;
68484;SDS011;55472;50.060;21.960;2023-04-24T07:04:21;7.05;;;3.42;;
68484;SDS011;55472;50.060;21.960;2023-04-24T07:06:48;9.60;;;3.53;;
68484;SDS011;55472;50.060;21.960;2023-04-24T07:09:14;7.70;;;4.00;;
68484;SDS011;55472;50.060;21.960;2023-04-24T07:11:44;6.93;;;3.37;;
68484;SDS011;55472;50.060;21.960;2023-04-24T07:14:11;7.30;;;3.90;;
68484;SDS011;55472;50.060;21.960;2023-04-24T07:16:37;7.03;;;3.60;;
68484;SDS011;55472;50.060;21.960;2023-04-24T07:19:04;8.73;;;3.55;;
68484;SDS011;55472;50.060;21.960;2023-04-24T07:21:30;6.88;;;3.60;;
68484;SDS011;55472;50.060;21.960;2023-04-24T07:23:57;6.53;;;3.80;;
68484;SDS011;55472;50.060;21.960;2023-04-24T07:26:25;7.07;;;3.42;;
68484;SDS011;55472;50.060;21.960;2023-04-24T07:28:53;6.53;;;3.58;;
68484;SDS011;55472;50.060;21.960;2023-04-24T07:31:19;10.88;;;3.78;;
68484;SDS011;55472;50.060;21.960;2023-04-24T07:33:46;7.30;;;3.75;;
68484;SDS011;55472;50.060;21.960;2023-04-24T07:36:12;5.73;;;3.53;;
68484;SDS011;55472;50.060;21.960;2023-04-24T07:38:42;8.77;;;3.53;;
68484;SDS011;55472;50.060;21.960;2023-04-24T07:41:08;8.30;;;3.83;;
68484;SDS011;55472;50.060;21.960;2023-04-24T07:43:35;8.32;;;3.60;;
68484;SDS011;55472;50.060;21.960;2023-04-24T07:46:01;7.00;;;3.60;;
68484;SDS011;55472;50.060;21.960;2023-04-24T07:48:27;8.33;;;3.60;;
68484;SDS011;55472;50.060;21.960;2023-04-24T07:50:53;6.78;;;3.72;;
68484;SDS011;55472;50.060;21.960;2023-04-24T07:53:19;8.98;;;3.90;;
68484;SDS011;55472;50.060;21.960;2023-04-24T07:55:46;6.78;;;3.50;;
68484;SDS011;55472;50.060;21.960;2023-04-24T07:58:12;8.82;;;3.85;;
68484;SDS011;55472;50.060;21.960;2023-04-24T08:00:38;8.43;;;3.73;;
68484;SDS011;55472;50.060;21.960;2023-04-24T08:03:04;7.50;;;4.20;;
68484;SDS011;55472;50.060;21.960;2023-04-24T08:05:30;7.72;;;3.67;;
68484;SDS011;55472;50.060;21.960;2023-04-24T08:07:56;10.38;;;3.53;;
68484;SDS011;55472;50.060;21.960;2023-04-24T08:10:22;7.22;;;3.53;;
68484;SDS011;55472;50.060;21.960;2023-04-24T08:12:49;9.90;;;3.83;;
68484;SDS011;55472;50.060;21.960;2023-04-24T08:15:15;8.27;;;3.83;;
68484;SDS011;55472;50.060;21.960;2023-04-24T08:17:42;6.38;;;3.67;;
68484;SDS011;55472;50.060;21.960;2023-04-24T08:20:10;8.35;;;4.20;;
68484;SDS011;55472;50.060;21.960;2023-04-24T08:22:40;7.05;;;3.80;;
68484;SDS011;55472;50.060;21.960;2023-04-24T08:25:08;9.03;;;3.80;;
68484;SDS011;55472;50.060;21.960;2023-04-24T08:27:35;8.90;;;3.58;;
68484;SDS011;55472;50.060;21.960;2023-04-24T08:30:03;8.75;;;3.47;;
68484;SDS011;55472;50.060;21.960;2023-04-24T08:32:31;6.30;;;3.47;;
68484;SDS011;55472;50.060;21.960;2023-04-24T08:34:58;12.02;;;4.00;;
68484;SDS011;55472;50.060;21.960;2023-04-24T08:37:25;7.07;;;3.60;;
68484;SDS011;55472;50.060;21.960;2023-04-24T08:39:53;6.40;;;3.60;;
68484;SDS011;55472;50.060;21.960;2023-04-24T08:42:19;6.47;;;3.35;;
68484;SDS011;55472;50.060;21.960;2023-04-24T08:44:47;8.07;;;3.40;;
68484;SDS011;55472;50.060;21.960;2023-04-24T08:47:15;9.50;;;3.67;;
68484;SDS011;55472;50.060;21.960;2023-04-24T08:49:42;5.90;;;3.87;;
68484;SDS011;55472;50.060;21.960;2023-04-24T08:52:09;9.85;;;4.00;;
68484;SDS011;55472;50.060;21.960;2023-04-24T08:54:41;5.95;;;3.30;;
68484;SDS011;55472;50.060;21.960;2023-04-24T08:57:10;6.65;;;3.63;;
68484;SDS011;55472;50.060;21.960;2023-04-24T08:59:42;7.25;;;3.33;;
68484;SDS011;55472;50.060;21.960;2023-04-24T09:02:19;6.77;;;3.40;;
68484;SDS011;55472;50.060;21.960;2023-04-24T09:04:47;6.47;;;3.35;;
68484;SDS011;55472;50.060;21.960;2023-04-24T09:07:14;9.07;;;4.75;;
68484;SDS011;55472;50.060;21.960;2023-04-24T09:09:43;8.20;;;3.60;;
68484;SDS011;55472;50.060;21.960;2023-04-24T09:12:09;7.13;;;3.42;;
68484;SDS011;55472;50.060;21.960;2023-04-24T09:14:36;7.70;;;3.23;;
68484;SDS011;55472;50.060;21.960;2023-04-24T09:17:10;6.50;;;3.17;;
68484;SDS011;55472;50.060;21.960;2023-04-24T09:19:37;9.25;;;3.17;;
68484;SDS011;55472;50.060;21.960;2023-04-24T09:22:06;11.23;;;4.40;;
68484;SDS011;55472;50.060;21.960;2023-04-24T09:24:33;9.65;;;3.85;;
68484;SDS011;55472;50.060;21.960;2023-04-24T09:27:00;7.30;;;3.40;;
68484;SDS011;55472;50.060;21.960;2023-04-24T09:29:27;8.63;;;3.30;;
68484;SDS011;55472;50.060;21.960;2023-04-24T09:31:53;7.63;;;3.20;;
68484;SDS011;55472;50.060;21.960;2023-04-24T09:34:24;9.82;;;3.25;;
68484;SDS011;55472;50.060;21.960;2023-04-24T09:36:52;6.28;;;3.42;;
68484;SDS011;55472;50.060;21.960;2023-04-24T09:39:21;6.03;;;3.30;;
68484;SDS011;55472;50.060;21.960;2023-04-24T09:41:54;5.95;;;3.28;;
68484;SDS011;55472;50.060;21.960;2023-04-24T09:44:27;7.85;;;3.80;;
68484;SDS011;55472;50.060;21.960;2023-04-24T09:46:54;8.10;;;5.30;;
68484;SDS011;55472;50.060;21.960;2023-04-24T09:52:08;5.97;;;3.20;;
68484;SDS011;55472;50.060;21.960;2023-04-24T09:54:36;8.82;;;3.00;;
68484;SDS011;55472;50.060;21.960;2023-04-24T09:57:03;7.43;;;3.60;;
68484;SDS011;55472;50.060;21.960;2023-04-24T09:59:29;7.22;;;3.13;;
68484;SDS011;55472;50.060;21.960;2023-04-24T10:01:55;10.40;;;3.90;;
68484;SDS011;55472;50.060;21.960;2023-04-24T10:04:24;7.40;;;3.13;;
68484;SDS011;55472;50.060;21.960;2023-04-24T10:06:53;6.80;;;3.40;;
68484;SDS011;55472;50.060;21.960;2023-04-24T10:09:22;5.88;;;3.47;;
68484;SDS011;55472;50.060;21.960;2023-04-24T10:11:51;9.43;;;3.25;;
68484;SDS011;55472;50.060;21.960;2023-04-24T10:14:20;6.82;;;3.72;;
68484;SDS011;55472;50.060;21.960;2023-04-24T10:16:49;6.83;;;3.17;;
68484;SDS011;55472;50.060;21.960;2023-04-24T10:19:19;8.00;;;3.38;;
68484;SDS011;55472;50.060;21.960;2023-04-24T10:21:45;8.85;;;3.30;;
68484;SDS011;55472;50.060;21.960;2023-04-24T10:24:13;5.50;;;3.35;;
68484;SDS011;55472;50.060;21.960;2023-04-24T10:26:44;5.50;;;2.90;;
68484;SDS011;55472;50.060;21.960;2023-04-24T10:29:14;5.50;;;3.00;;
68484;SDS011;55472;50.060;21.960;2023-04-24T10:31:43;10.48;;;3.13;;
68484;SDS011;55472;50.060;21.960;2023-04-24T10:34:11;6.90;;;2.78;;
68484;SDS011;55472;50.060;21.960;2023-04-24T10:36:40;5.88;;;3.10;;
68484;SDS011;55472;50.060;21.960;2023-04-24T10:39:11;8.35;;;3.30;;
68484;SDS011;55472;50.060;21.960;2023-04-24T10:41:40;9.07;;;3.20;;
68484;SDS011;55472;50.060;21.960;2023-04-24T10:44:13;9.32;;;3.17;;
68484;SDS011;55472;50.060;21.960;2023-04-24T10:46:44;6.82;;;2.80;;
68484;SDS011;55472;50.060;21.960;2023-04-24T10:49:15;6.07;;;3.00;;
68484;SDS011;55472;50.060;21.960;2023-04-24T10:55:01;9.47;;;3.30;;
68484;SDS011;55472;50.060;21.960;2023-04-24T10:59:46;5.15;;;2.92;;
68484;SDS011;55472;50.060;21.960;2023-04-24T11:02:14;6.28;;;3.28;;
68484;SDS011;55472;50.060;21.960;2023-04-24T11:04:42;5.35;;;3.10;;
68484;SDS011;55472;50.060;21.960;2023-04-24T11:07:09;7.10;;;3.47;;
68484;SDS011;55472;50.060;21.960;2023-04-24T11:09:36;7.20;;;3.10;;
68484;SDS011;55472;50.060;21.960;2023-04-24T11:12:06;9.02;;;2.92;;
68484;SDS011;55472;50.060;21.960;2023-04-24T11:22:35;7.70;;;3.13;;
68484;SDS011;55472;50.060;21.960;2023-04-24T11:25:03;5.75;;;3.10;;
68484;SDS011;55472;50.060;21.960;2023-04-24T11:27:31;7.80;;;2.90;;
68484;SDS011;55472;50.060;21.960;2023-04-24T11:30:05;6.55;;;2.90;;
68484;SDS011;55472;50.060;21.960;2023-04-24T11:35:02;5.38;;;3.05;;
68484;SDS011;55472;50.060;21.960;2023-04-24T11:37:37;6.57;;;3.10;;
68484;SDS011;55472;50.060;21.960;2023-04-24T11:40:05;8.68;;;3.10;;
68484;SDS011;55472;50.060;21.960;2023-04-24T11:42:34;9.27;;;3.10;;
68484;SDS011;55472;50.060;21.960;2023-04-24T11:45:15;7.23;;;2.87;;
68484;SDS011;55472;50.060;21.960;2023-04-24T11:47:45;7.93;;;2.80;;
68484;SDS011;55472;50.060;21.960;2023-04-24T11:50:13;5.50;;;2.83;;
68484;SDS011;55472;50.060;21.960;2023-04-24T11:52:46;6.18;;;2.85;;
68484;SDS011;55472;50.060;21.960;2023-04-24T11:57:41;5.90;;;2.93;;
68484;SDS011;55472;50.060;21.960;2023-04-24T12:00:15;8.23;;;3.03;;
68484;SDS011;55472;50.060;21.960;2023-04-24T12:02:46;5.35;;;2.67;;
68484;SDS011;55472;50.060;21.960;2023-04-24T12:07:48;5.33;;;2.57;;
68484;SDS011;55472;50.060;21.960;2023-04-24T12:10:19;4.80;;;2.70;;
68484;SDS011;55472;50.060;21.960;2023-04-24T12:12:46;5.18;;;2.90;;
68484;SDS011;55472;50.060;21.960;2023-04-24T12:15:15;5.47;;;2.88;;
68484;SDS011;55472;50.060;21.960;2023-04-24T12:17:43;5.35;;;2.50;;
68484;SDS011;55472;50.060;21.960;2023-04-24T12:20:10;6.50;;;2.80;;
68484;SDS011;55472;50.060;21.960;2023-04-24T12:22:48;6.03;;;2.83;;
68484;SDS011;55472;50.060;21.960;2023-04-24T12:25:23;4.82;;;2.78;;
68484;SDS011;55472;50.060;21.960;2023-04-24T12:27:52;4.47;;;2.60;;
68484;SDS011;55472;50.060;21.960;2023-04-24T12:30:48;5.88;;;2.92;;
68484;SDS011;55472;50.060;21.960;2023-04-24T12:33:19;5.17;;;2.60;;
68484;SDS011;55472;50.060;21.960;2023-04-24T12:35:47;5.35;;;2.40;;
68484;SDS011;55472;50.060;21.960;2023-04-24T12:38:21;5.38;;;2.72;;
68484;SDS011;55472;50.060;21.960;2023-04-24T12:41:00;7.60;;;3.00;;
68484;SDS011;55472;50.060;21.960;2023-04-24T12:43:37;6.03;;;2.90;;
68484;SDS011;55472;50.060;21.960;2023-04-24T12:46:03;7.53;;;3.73;;
68484;SDS011;55472;50.060;21.960;2023-04-24T12:48:30;6.80;;;2.70;;
68484;SDS011;55472;50.060;21.960;2023-04-24T12:50:57;4.95;;;2.80;;
68484;SDS011;55472;50.060;21.960;2023-04-24T12:53:26;9.90;;;4.47;;
68484;SDS011;55472;50.060;21.960;2023-04-24T12:55:55;9.10;;;2.72;;
68484;SDS011;55472;50.060;21.960;2023-04-24T12:58:21;6.43;;;3.00;;
68484;SDS011;55472;50.060;21.960;2023-04-24T13:00:48;6.50;;;2.80;;
68484;SDS011;55472;50.060;21.960;2023-04-24T13:03:14;6.45;;;2.88;;
68484;SDS011;55472;50.060;21.960;2023-04-24T13:05:41;9.70;;;2.83;;
68484;SDS011;55472;50.060;21.960;2023-04-24T13:08:08;7.07;;;3.60;;
68484;SDS011;55472;50.060;21.960;2023-04-24T13:10:35;5.60;;;3.00;;
68484;SDS011;55472;50.060;21.960;2023-04-24T13:13:01;6.57;;;2.78;;
68484;SDS011;55472;50.060;21.960;2023-04-24T13:15:28;6.38;;;2.78;;
68484;SDS011;55472;50.060;21.960;2023-04-24T13:17:54;7.78;;;2.63;;
68484;SDS011;55472;50.060;21.960;2023-04-24T13:20:21;4.85;;;2.55;;
68484;SDS011;55472;50.060;21.960;2023-04-24T13:22:47;7.03;;;2.70;;
68484;SDS011;55472;50.060;21.960;2023-04-24T13:25:13;6.45;;;2.83;;
68484;SDS011;55472;50.060;21.960;2023-04-24T13:27:42;6.10;;;2.70;;
68484;SDS011;55472;50.060;21.960;2023-04-24T13:30:08;6.95;;;2.90;;
68484;SDS011;55472;50.060;21.960;2023-04-24T13:32:35;4.85;;;2.60;;
68484;SDS011;55472;50.060;21.960;2023-04-24T13:35:02;5.83;;;2.83;;
68484;SDS011;55472;50.060;21.960;2023-04-24T13:37:28;5.68;;;2.75;;
68484;SDS011;55472;50.060;21.960;2023-04-24T13:39:54;7.13;;;2.83;;
68484;SDS011;55472;50.060;21.960;2023-04-24T13:42:20;8.40;;;3.00;;
68484;SDS011;55472;50.060;21.960;2023-04-24T13:44:46;9.25;;;2.70;;
68484;SDS011;55472;50.060;21.960;2023-04-24T13:47:12;7.90;;;2.87;;
68484;SDS011;55472;50.060;21.960;2023-04-24T13:49:39;5.22;;;2.70;;
68484;SDS011;55472;50.060;21.960;2023-04-24T13:52:05;5.80;;;3.25;;
68484;SDS011;55472;50.060;21.960;2023-04-24T13:54:31;6.45;;;2.70;;
68484;SDS011;55472;50.060;21.960;2023-04-24T13:56:58;6.38;;;2.40;;
68484;SDS011;55472;50.060;21.960;2023-04-24T13:59:24;4.83;;;2.57;;
68484;SDS011;55472;50.060;21.960;2023-04-24T14:01:50;8.60;;;2.90;;
68484;SDS011;55472;50.060;21.960;2023-04-24T14:04:16;6.35;;;3.15;;
68484;SDS011;55472;50.060;21.960;2023-04-24T14:06:43;6.35;;;2.80;;
68484;SDS011;55472;50.060;21.960;2023-04-24T14:09:09;4.97;;;3.00;;
68484;SDS011;55472;50.060;21.960;2023-04-24T14:11:35;6.10;;;3.00;;
68484;SDS011;55472;50.060;21.960;2023-04-24T14:14:02;5.93;;;2.60;;
68484;SDS011;55472;50.060;21.960;2023-04-24T14:16:28;7.20;;;2.88;;
68484;SDS011;55472;50.060;21.960;2023-04-24T14:18:55;7.72;;;2.90;;
68484;SDS011;55472;50.060;21.960;2023-04-24T14:21:21;7.30;;;3.10;;
68484;SDS011;55472;50.060;21.960;2023-04-24T14:23:48;4.57;;;2.70;;
68484;SDS011;55472;50.060;21.960;2023-04-24T14:26:14;8.88;;;3.70;;
68484;SDS011;55472;50.060;21.960;2023-04-24T14:28:40;7.43;;;3.70;;
68484;SDS011;55472;50.060;21.960;2023-04-24T14:31:06;9.20;;;3.40;;
68484;SDS011;55472;50.060;21.960;2023-04-24T14:33:33;8.07;;;3.50;;
68484;SDS011;55472;50.060;21.960;2023-04-24T14:36:01;8.93;;;3.70;;
68484;SDS011;55472;50.060;21.960;2023-04-24T14:38:30;8.43;;;3.45;;
68484;SDS011;55472;50.060;21.960;2023-04-24T14:40:56;7.75;;;3.80;;
68484;SDS011;55472;50.060;21.960;2023-04-24T14:43:22;8.50;;;3.90;;
68484;SDS011;55472;50.060;21.960;2023-04-24T14:45:48;9.02;;;3.70;;
68484;SDS011;55472;50.060;21.960;2023-04-24T14:48:15;5.93;;;3.37;;
68484;SDS011;55472;50.060;21.960;2023-04-24T14:50:42;6.07;;;3.35;;
68484;SDS011;55472;50.060;21.960;2023-04-24T14:53:09;6.80;;;3.17;;
68484;SDS011;55472;50.060;21.960;2023-04-24T14:55:35;6.13;;;3.10;;
68484;SDS011;55472;50.060;21.960;2023-04-24T14:58:02;8.57;;;3.30;;